createdAt,value
2022-08-09T00:00:29.505Z,17.10
2022-08-09T00:02:58.262Z,17.10
2022-08-09T00:06:19.738Z,17.00
2022-08-09T00:08:32.072Z,17.00
2022-08-09T00:11:24.976Z,17.00
2022-08-09T00:13:55.768Z,17.00
2022-08-09T00:16:36.458Z,17.00
2022-08-09T00:19:09.551Z,17.00
2022-08-09T00:21:56.698Z,16.90
2022-08-09T00:24:27.140Z,16.90
2022-08-09T00:27:02.486Z,16.90
2022-08-09T00:30:09.962Z,16.90
2022-08-09T00:32:27.220Z,16.80
2022-08-09T00:34:56.255Z,16.80
2022-08-09T00:37:32.723Z,16.80
2022-08-09T00:40:12.464Z,16.70
2022-08-09T00:44:18.856Z,16.70
2022-08-09T00:45:39.642Z,16.60
2022-08-09T00:48:31.530Z,16.50
2022-08-09T00:51:11.793Z,16.50
2022-08-09T00:53:48.541Z,16.50
2022-08-09T00:56:20.777Z,16.40
2022-08-09T00:58:58.507Z,16.40
2022-08-09T01:01:45.053Z,16.30
2022-08-09T01:04:29.497Z,16.30
2022-08-09T01:07:12.312Z,16.30
2022-08-09T01:10:04.516Z,16.30
2022-08-09T01:12:39.826Z,16.30
2022-08-09T01:15:17.670Z,16.20
2022-08-09T01:17:52.777Z,16.20
2022-08-09T01:20:41.539Z,16.20
2022-08-09T01:24:03.596Z,16.10
2022-08-09T01:26:46.168Z,16.10
2022-08-09T01:29:17.400Z,16.10
2022-08-09T01:32:30.335Z,16.10
2022-08-09T01:34:45.417Z,16.00
2022-08-09T01:38:05.620Z,16.00
2022-08-09T01:40:23.171Z,16.10
2022-08-09T01:43:05.597Z,16.00
2022-08-09T01:45:35.950Z,16.00
2022-08-09T01:48:24.146Z,16.00
2022-08-09T01:50:59.778Z,15.90
2022-08-09T01:53:41.195Z,16.00
2022-08-09T01:56:12.262Z,15.90
2022-08-09T01:58:51.580Z,15.90
2022-08-09T02:01:21.386Z,15.90
2022-08-09T02:04:08.503Z,15.90
2022-08-09T02:07:04.813Z,15.80
2022-08-09T02:09:59.518Z,15.80
2022-08-09T02:12:31.785Z,15.80
2022-08-09T02:15:16.939Z,15.80
2022-08-09T02:18:01.733Z,15.80
2022-08-09T02:20:46.716Z,15.80
2022-08-09T02:23:19.138Z,15.70
2022-08-09T02:25:56.939Z,15.70
2022-08-09T02:28:32.078Z,15.70
2022-08-09T02:31:10.622Z,15.70
2022-08-09T02:34:07.353Z,15.70
2022-08-09T02:36:39.599Z,15.70
2022-08-09T02:39:19.905Z,15.60
2022-08-09T02:42:13.588Z,15.70
2022-08-09T02:44:49.301Z,15.60
2022-08-09T02:47:28.624Z,15.60
2022-08-09T02:50:07.214Z,15.60
2022-08-09T02:52:48.564Z,15.60
2022-08-09T02:55:46.914Z,15.60
2022-08-09T02:58:36.131Z,15.60
2022-08-09T03:01:08.344Z,15.60
2022-08-09T03:04:18.204Z,15.60
2022-08-09T03:06:36.427Z,15.60
2022-08-09T03:09:20.638Z,15.60
2022-08-09T03:12:05.792Z,15.50
2022-08-09T03:14:45.720Z,15.50
2022-08-09T03:17:16.536Z,15.50
2022-08-09T03:20:00.170Z,15.50
2022-08-09T03:22:41.746Z,15.40
2022-08-09T03:25:25.978Z,15.40
2022-08-09T03:28:14.633Z,15.50
2022-08-09T03:30:46.287Z,15.40
2022-08-09T03:33:24.703Z,15.40
2022-08-09T03:36:13.509Z,15.40
2022-08-09T03:38:50.736Z,15.40
2022-08-09T03:41:18.923Z,15.40
2022-08-09T03:44:08.331Z,15.40
2022-08-09T03:46:37.595Z,15.50
2022-08-09T03:49:16.655Z,15.40
2022-08-09T03:51:58.836Z,15.30
2022-08-09T03:54:38.891Z,15.30
2022-08-09T03:57:19.903Z,15.30
2022-08-09T04:00:00.570Z,15.30
2022-08-09T04:02:32.807Z,15.30
2022-08-09T04:05:20.272Z,15.30
2022-08-09T04:08:17.676Z,15.30
2022-08-09T04:10:52.683Z,15.20
2022-08-09T04:13:44.738Z,15.20
2022-08-09T04:16:21.144Z,15.20
2022-08-09T04:18:51.236Z,15.20
2022-08-09T04:21:26.685Z,15.20
2022-08-09T04:23:57.679Z,15.10
2022-08-09T04:26:35.327Z,15.20
2022-08-09T04:29:12.153Z,15.20
2022-08-09T04:31:49.774Z,15.20
2022-08-09T04:34:19.123Z,15.10
2022-08-09T04:37:06.742Z,15.20
2022-08-09T04:39:40.514Z,15.10
2022-08-09T04:42:25.329Z,15.10
2022-08-09T04:44:58.426Z,15.20
2022-08-09T04:47:45.027Z,15.20
2022-08-09T04:50:22.783Z,15.20
2022-08-09T04:53:06.721Z,15.20
2022-08-09T04:55:57.276Z,15.20
2022-08-09T04:58:34.785Z,15.20
2022-08-09T05:01:03.680Z,15.20
2022-08-09T05:03:56.708Z,15.20
2022-08-09T05:06:29.102Z,15.30
2022-08-09T05:09:16.753Z,15.30
2022-08-09T05:11:46.352Z,15.30
2022-08-09T05:14:21.771Z,15.30
2022-08-09T05:16:59.740Z,15.40
2022-08-09T05:19:46.365Z,15.40
2022-08-09T05:22:36.344Z,15.40
2022-08-09T05:25:09.076Z,15.50
2022-08-09T05:27:45.429Z,15.50
2022-08-09T05:30:23.755Z,15.60
2022-08-09T05:32:58.050Z,15.60
2022-08-09T05:35:33.775Z,15.70
2022-08-09T05:38:22.049Z,15.80
2022-08-09T05:40:56.788Z,15.80
2022-08-09T05:43:29.140Z,15.80
2022-08-09T05:46:06.796Z,15.90
2022-08-09T05:48:35.087Z,16.00
2022-08-09T05:51:30.270Z,16.10
2022-08-09T05:54:00.840Z,16.20
2022-08-09T05:56:35.792Z,16.30
2022-08-09T05:59:05.356Z,16.40
2022-08-09T06:01:42.657Z,16.50
2022-08-09T06:04:12.354Z,16.60
2022-08-09T06:06:49.722Z,16.60
2022-08-09T06:09:54.111Z,16.70
2022-08-09T06:12:26.271Z,16.80
2022-08-09T06:15:00.659Z,17.00
2022-08-09T06:17:40.050Z,17.00
2022-08-09T06:20:09.751Z,17.10
2022-08-09T06:22:45.668Z,17.20
2022-08-09T06:25:16.216Z,17.30
2022-08-09T06:27:51.889Z,17.30
2022-08-09T06:30:21.479Z,17.30
2022-08-09T06:33:13.256Z,17.30
2022-08-09T06:35:56.988Z,17.40
2022-08-09T06:38:37.601Z,17.60
2022-08-09T06:41:18.056Z,17.70
2022-08-09T06:43:53.223Z,17.70
2022-08-09T06:46:39.675Z,17.70
2022-08-09T06:49:16.145Z,17.70
2022-08-09T06:51:57.307Z,17.80
2022-08-09T06:54:31.874Z,17.90
2022-08-09T06:57:01.548Z,17.90
2022-08-09T07:00:55.053Z,18.00
2022-08-09T07:02:30.837Z,18.10
2022-08-09T07:05:06.858Z,18.10
2022-08-09T07:08:00.504Z,18.20
2022-08-09T07:10:43.855Z,18.20
2022-08-09T07:13:27.208Z,18.30
2022-08-09T07:16:42.430Z,18.50
2022-08-09T07:18:52.383Z,18.60
2022-08-09T07:21:31.007Z,18.70
2022-08-09T07:24:02.328Z,18.70
2022-08-09T07:26:39.989Z,18.80
2022-08-09T07:29:13.212Z,18.90
2022-08-09T07:31:48.906Z,19.00
2022-08-09T07:34:19.581Z,19.10
2022-08-09T07:36:57.901Z,19.20
2022-08-09T07:39:41.187Z,19.30
2022-08-09T07:42:17.933Z,19.30
2022-08-09T07:44:50.908Z,19.50
2022-08-09T07:47:27.876Z,19.50
2022-08-09T07:50:08.118Z,19.60
2022-08-09T07:52:44.906Z,19.70
2022-08-09T07:55:16.304Z,19.80
2022-08-09T07:57:53.908Z,20.00
2022-08-09T08:00:36.494Z,20.10
2022-08-09T08:03:11.931Z,20.20
2022-08-09T08:05:57.834Z,20.30
2022-08-09T08:09:00.804Z,20.40
2022-08-09T08:12:10.415Z,20.50
2022-08-09T08:14:23.944Z,20.50
2022-08-09T08:17:00.635Z,20.50
2022-08-09T08:19:42.934Z,20.60
2022-08-09T08:22:13.984Z,20.60
2022-08-09T08:24:49.200Z,20.80
2022-08-09T08:27:19.106Z,20.90
2022-08-09T08:30:03.809Z,21.10
2022-08-09T08:32:34.773Z,21.40
2022-08-09T08:35:18.186Z,21.50
2022-08-09T08:38:01.966Z,21.60
2022-08-09T08:40:43.939Z,21.70
2022-08-09T08:43:18.192Z,21.80
2022-08-09T08:46:10.201Z,21.80
2022-08-09T08:48:51.230Z,22.00
2022-08-09T08:51:41.632Z,22.20
2022-08-09T08:54:20.126Z,22.30
2022-08-09T08:56:54.968Z,22.30
2022-08-09T08:59:24.062Z,22.60
2022-08-09T09:02:31.402Z,22.70
2022-08-09T09:05:06.188Z,22.90
2022-08-09T09:07:46.953Z,23.10
2022-08-09T09:10:34.154Z,23.00
2022-08-09T09:13:11.580Z,23.00
2022-08-09T09:15:43.718Z,23.10
2022-08-09T09:18:24.695Z,23.10
2022-08-09T09:20:53.075Z,23.30
2022-08-09T09:23:49.807Z,23.20
2022-08-09T09:26:26.830Z,23.30
2022-08-09T09:29:10.998Z,23.30
2022-08-09T09:32:07.046Z,23.50
2022-08-09T09:34:49.167Z,23.80
2022-08-09T09:37:32.189Z,24.10
2022-08-09T09:40:07.028Z,24.20
2022-08-09T09:42:37.503Z,24.10
2022-08-09T09:45:26.443Z,24.10
2022-08-09T09:47:58.757Z,24.00
2022-08-09T09:50:50.850Z,23.90
2022-08-09T09:53:21.525Z,23.90
2022-08-09T09:56:19.834Z,23.90
2022-08-09T09:59:00.577Z,24.10
2022-08-09T10:01:38.169Z,24.40
2022-08-09T10:04:16.271Z,24.40
2022-08-09T10:06:58.033Z,24.40
2022-08-09T10:09:55.042Z,24.40
2022-08-09T10:12:43.707Z,24.50
2022-08-09T10:15:25.527Z,24.70
2022-08-09T10:18:19.029Z,25.00
2022-08-09T10:20:49.251Z,24.60
2022-08-09T10:23:29.043Z,24.60
2022-08-09T10:26:06.183Z,24.70
2022-08-09T10:28:49.107Z,24.90
2022-08-09T10:34:33.247Z,25.10
2022-08-09T10:37:04.637Z,25.40
2022-08-09T10:39:49.496Z,25.50
2022-08-09T10:42:18.845Z,25.20
2022-08-09T10:44:56.065Z,25.30
2022-08-09T10:48:18.039Z,25.50
2022-08-09T10:50:57.052Z,25.50
2022-08-09T10:53:54.821Z,25.40
2022-08-09T10:56:31.147Z,25.50
2022-08-09T10:59:01.253Z,25.60
2022-08-09T11:03:14.570Z,25.80
2022-08-09T11:04:55.515Z,25.60
2022-08-09T11:07:57.063Z,25.90
2022-08-09T11:11:00.748Z,26.10
2022-08-09T11:13:50.684Z,26.20
2022-08-09T11:16:39.181Z,26.00
2022-08-09T11:19:16.103Z,25.80
2022-08-09T11:22:05.505Z,26.00
2022-08-09T11:25:12.130Z,26.30
2022-08-09T11:28:04.461Z,26.40
2022-08-09T11:30:45.891Z,26.30
2022-08-09T11:33:33.388Z,26.70
2022-08-09T11:36:09.107Z,26.50
2022-08-09T11:38:44.348Z,26.50
2022-08-09T11:41:38.566Z,26.60
2022-08-09T11:44:09.632Z,26.40
2022-08-09T11:47:11.112Z,26.40
2022-08-09T11:50:53.845Z,26.70
2022-08-09T11:54:01.664Z,26.70
2022-08-09T11:56:42.594Z,27.00
2022-08-09T11:59:34.218Z,26.80
2022-08-09T12:02:17.722Z,27.10
2022-08-09T12:05:00.228Z,27.30
2022-08-09T12:07:41.399Z,27.60
2022-08-09T12:10:39.321Z,27.40
2022-08-09T12:14:08.320Z,27.20
2022-08-09T12:16:25.595Z,26.80
2022-08-09T12:18:57.664Z,26.70
2022-08-09T12:21:39.081Z,27.10
2022-08-09T12:24:23.681Z,27.10
2022-08-09T12:29:00.253Z,27.00
2022-08-09T12:30:01.478Z,26.70
2022-08-09T12:32:52.165Z,26.70
2022-08-09T12:35:22.009Z,26.90
2022-08-09T12:37:57.379Z,27.10
2022-08-09T12:40:28.568Z,27.10
2022-08-09T12:43:05.172Z,27.10
2022-08-09T12:45:38.515Z,26.90
2022-08-09T12:48:31.207Z,27.10
2022-08-09T12:51:03.921Z,27.40
2022-08-09T12:53:44.896Z,27.30
2022-08-09T12:56:39.567Z,27.30
2022-08-09T12:59:20.237Z,27.50
2022-08-09T13:02:05.222Z,27.60
2022-08-09T13:04:44.211Z,27.50
2022-08-09T13:07:16.532Z,27.90
2022-08-09T13:09:55.140Z,28.00
2022-08-09T13:12:28.325Z,28.00
2022-08-09T13:15:12.198Z,28.10
2022-08-09T13:18:02.530Z,28.10
2022-08-09T13:22:33.434Z,28.00
2022-08-09T13:24:16.029Z,28.30
2022-08-09T13:26:49.873Z,28.50
2022-08-09T13:29:20.621Z,29.00
2022-08-09T13:32:25.351Z,29.00
2022-08-09T13:34:57.255Z,29.00
2022-08-09T13:37:52.393Z,28.60
2022-08-09T13:41:56.539Z,28.40
2022-08-09T13:43:15.645Z,28.40
2022-08-09T13:46:44.608Z,28.30
2022-08-09T13:48:39.267Z,28.50
2022-08-09T13:51:11.767Z,28.50
2022-08-09T13:53:48.250Z,28.70
2022-08-09T13:56:18.206Z,29.00
2022-08-09T13:58:54.240Z,28.90
2022-08-09T14:02:01.493Z,28.60
2022-08-09T14:04:23.680Z,28.90
2022-08-09T14:06:56.975Z,29.00
2022-08-09T14:09:35.742Z,28.80
2022-08-09T14:12:15.712Z,28.70
2022-08-09T14:14:53.798Z,28.80
2022-08-09T14:17:24.600Z,28.90
2022-08-09T14:20:08.286Z,28.60
2022-08-09T14:22:38.093Z,28.40
2022-08-09T14:25:13.281Z,28.40
2022-08-09T14:27:57.090Z,28.30
2022-08-09T14:30:36.847Z,28.20
2022-08-09T14:33:11.138Z,28.10
2022-08-09T14:35:52.029Z,28.20
2022-08-09T14:38:22.674Z,28.30
2022-08-09T14:41:01.052Z,28.20
2022-08-09T14:43:47.233Z,28.00
2022-08-09T14:46:54.310Z,27.80
2022-08-09T14:49:13.947Z,28.00
2022-08-09T14:51:51.325Z,27.90
2022-08-09T14:54:28.579Z,27.70
2022-08-09T14:57:03.313Z,27.60
2022-08-09T14:59:31.771Z,27.60
2022-08-09T15:02:13.290Z,27.50
2022-08-09T15:04:44.080Z,27.40
2022-08-09T15:07:22.335Z,27.50
2022-08-09T15:10:21.299Z,27.60
2022-08-09T15:13:01.338Z,27.50
2022-08-09T15:15:30.181Z,27.40
2022-08-09T15:18:12.426Z,27.20
2022-08-09T15:21:55.257Z,27.30
2022-08-09T15:24:01.169Z,27.20
2022-08-09T15:26:31.729Z,27.20
2022-08-09T15:29:08.341Z,27.10
2022-08-09T15:31:56.397Z,27.10
2022-08-09T15:34:35.001Z,27.10
2022-08-09T15:37:23.865Z,27.10
2022-08-09T15:39:58.371Z,27.10
2022-08-09T15:42:29.628Z,27.00
2022-08-09T15:45:05.362Z,27.10
2022-08-09T15:47:51.657Z,27.00
2022-08-09T15:50:29.346Z,26.90
2022-08-09T15:53:07.095Z,26.80
2022-08-09T15:56:04.542Z,26.70
2022-08-09T15:58:41.825Z,26.70
2022-08-09T16:01:16.490Z,26.70
2022-08-09T16:03:44.571Z,26.80
2022-08-09T16:06:29.551Z,26.80
2022-08-09T16:09:32.336Z,26.70
2022-08-09T16:12:18.392Z,26.60
2022-08-09T16:14:48.005Z,26.60
2022-08-09T16:17:22.375Z,26.60
2022-08-09T16:20:05.026Z,26.60
2022-08-09T16:22:48.833Z,26.50
2022-08-09T16:25:17.088Z,26.30
2022-08-09T16:28:13.817Z,26.30
2022-08-09T16:30:44.292Z,26.30
2022-08-09T16:33:20.570Z,26.30
2022-08-09T16:35:57.077Z,26.30
2022-08-09T16:38:35.396Z,26.40
2022-08-09T16:41:04.412Z,26.40
2022-08-09T16:43:42.403Z,26.40
2022-08-09T16:46:14.577Z,26.40
2022-08-09T16:48:54.083Z,26.30
2022-08-09T16:51:30.154Z,26.30
2022-08-09T16:54:25.890Z,26.30
2022-08-09T16:56:52.616Z,26.30
2022-08-09T16:59:27.427Z,26.30
2022-08-09T17:02:04.479Z,26.30
2022-08-09T17:04:40.456Z,26.30
2022-08-09T17:08:43.335Z,26.40
2022-08-09T17:10:12.448Z,26.30
2022-08-09T17:12:47.309Z,26.30
2022-08-09T17:15:31.014Z,26.20
2022-08-09T17:18:15.256Z,26.20
2022-08-09T17:20:52.972Z,26.20
2022-08-09T17:23:21.381Z,26.10
2022-08-09T17:26:12.386Z,26.10
2022-08-09T17:28:40.820Z,26.10
2022-08-09T17:31:15.900Z,26.00
2022-08-09T17:33:45.645Z,26.00
2022-08-09T17:36:28.464Z,26.00
2022-08-09T17:38:58.676Z,26.00
2022-08-09T17:41:38.495Z,26.00
2022-08-09T17:44:37.950Z,25.90
2022-08-09T17:47:02.482Z,25.90
2022-08-09T17:49:33.619Z,25.80
2022-08-09T17:52:10.491Z,25.70
2022-08-09T17:54:50.654Z,25.70
2022-08-09T17:58:02.928Z,25.60
2022-08-09T18:00:15.616Z,25.60
2022-08-09T18:02:58.357Z,25.50
2022-08-09T18:05:38.831Z,25.50
2022-08-09T18:08:18.498Z,25.50
2022-08-09T18:11:01.958Z,25.40
2022-08-09T18:13:38.746Z,25.40
2022-08-09T18:16:29.042Z,25.30
2022-08-09T18:20:56.591Z,25.30
2022-08-09T18:21:53.934Z,25.30
2022-08-09T18:24:28.514Z,25.20
2022-08-09T18:27:01.052Z,25.10
2022-08-09T18:30:39.328Z,25.10
2022-08-09T18:32:30.763Z,24.90
2022-08-09T18:35:07.518Z,24.90
2022-08-09T18:37:48.636Z,24.90
2022-08-09T18:40:29.507Z,24.90
2022-08-09T18:42:57.861Z,24.80
2022-08-09T18:46:47.706Z,24.80
2022-08-09T18:48:22.630Z,24.70
2022-08-09T18:51:06.522Z,24.70
2022-08-09T18:53:56.981Z,24.60
2022-08-09T18:56:31.642Z,24.50
2022-08-09T18:59:01.365Z,24.50
2022-08-09T19:01:45.922Z,24.40
2022-08-09T19:04:14.342Z,24.30
2022-08-09T19:06:50.836Z,24.30
2022-08-09T19:10:13.265Z,24.20
2022-08-09T19:12:27.553Z,24.20
2022-08-09T19:14:57.302Z,24.10
2022-08-09T19:17:31.633Z,24.00
2022-08-09T19:20:20.069Z,24.00
2022-08-09T19:22:57.570Z,23.90
2022-08-09T19:26:00.987Z,23.80
2022-08-09T19:28:21.556Z,23.80
2022-08-09T19:30:49.807Z,23.70
2022-08-09T19:33:25.586Z,23.60
2022-08-09T19:35:56.778Z,23.50
2022-08-09T19:38:33.559Z,23.40
2022-08-09T19:41:09.164Z,23.40
2022-08-09T19:44:01.015Z,23.30
2022-08-09T19:46:34.995Z,23.20
2022-08-09T19:50:06.998Z,23.20
2022-08-09T19:52:12.695Z,23.10
2022-08-09T19:54:47.603Z,23.00
2022-08-09T19:57:18.101Z,22.90
2022-08-09T20:00:06.986Z,22.90
2022-08-09T20:04:26.606Z,22.90
2022-08-09T20:05:45.942Z,22.80
2022-08-09T20:08:16.064Z,22.70
2022-08-09T20:11:06.604Z,22.70
2022-08-09T20:13:42.864Z,22.60
2022-08-09T20:16:35.161Z,22.50
2022-08-09T20:19:47.543Z,22.50
2022-08-09T20:22:02.606Z,22.40
2022-08-09T20:24:34.237Z,22.30
2022-08-09T20:27:11.678Z,22.30
2022-08-09T20:29:43.675Z,22.30
2022-08-09T20:32:33.138Z,22.20
2022-08-09T20:35:02.398Z,22.20
2022-08-09T20:38:23.752Z,22.20
2022-08-09T20:40:27.726Z,22.10
2022-08-09T20:43:17.920Z,22.00
2022-08-09T20:45:59.170Z,22.00
2022-08-09T20:48:48.632Z,22.00
2022-08-09T20:51:22.866Z,21.90
2022-08-09T20:53:58.652Z,21.90
2022-08-09T20:56:31.841Z,21.80
2022-08-09T20:59:06.672Z,21.80
2022-08-09T21:01:50.679Z,21.70
2022-08-09T21:05:51.204Z,21.70
2022-08-09T21:07:16.660Z,21.60
2022-08-09T21:09:58.570Z,21.60
2022-08-09T21:12:34.920Z,21.60
2022-08-09T21:15:12.580Z,21.60
2022-08-09T21:18:20.826Z,21.50
2022-08-09T21:20:38.320Z,21.50
2022-08-09T21:23:09.017Z,21.50
2022-08-09T21:26:01.676Z,21.50
2022-08-09T21:28:39.697Z,21.50
2022-08-09T21:31:23.877Z,21.40
2022-08-09T21:34:28.706Z,21.40
2022-08-09T21:36:57.945Z,21.30
2022-08-09T21:39:41.834Z,21.30
2022-08-09T21:42:11.332Z,21.30
2022-08-09T21:44:46.775Z,21.30
2022-08-09T21:47:18.095Z,21.20
2022-08-09T21:49:55.774Z,21.10
2022-08-09T21:52:25.447Z,21.00
2022-08-09T21:55:04.486Z,21.00
2022-08-09T21:57:39.512Z,20.90
2022-08-09T22:00:33.053Z,20.90
2022-08-09T22:03:04.817Z,20.90
2022-08-09T22:05:43.703Z,20.90
2022-08-09T22:08:15.171Z,20.90
2022-08-09T22:11:50.505Z,20.80
2022-08-09T22:13:44.890Z,20.80
2022-08-09T22:16:19.718Z,20.80
2022-08-09T22:18:53.060Z,20.80
2022-08-09T22:21:49.672Z,20.70
2022-08-09T22:24:24.111Z,20.70
2022-08-09T22:26:59.743Z,20.70
2022-08-09T22:29:32.301Z,20.50
2022-08-09T22:32:30.119Z,20.50
2022-08-09T22:35:05.962Z,20.50
2022-08-09T22:37:43.789Z,20.40
2022-08-09T22:40:19.950Z,20.40
2022-08-09T22:42:54.925Z,20.40
2022-08-09T22:48:12.379Z,20.30
2022-08-09T22:48:36.494Z,20.30
2022-08-09T22:51:10.305Z,20.30
2022-08-09T22:54:02.259Z,20.20
2022-08-09T22:56:37.753Z,20.20
2022-08-09T22:59:55.690Z,20.20
2022-08-09T23:02:05.110Z,20.10
2022-08-09T23:04:39.768Z,20.10
2022-08-09T23:08:09.425Z,20.00
2022-08-09T23:10:27.774Z,20.00
2022-08-09T23:13:02.713Z,20.00
2022-08-09T23:15:37.790Z,19.90
2022-08-09T23:18:05.842Z,19.90
2022-08-09T23:20:40.835Z,19.90
2022-08-09T23:23:08.904Z,19.90
2022-08-09T23:25:44.763Z,19.90
2022-08-09T23:28:15.237Z,19.80
2022-08-09T23:30:51.947Z,19.80
2022-08-09T23:33:20.558Z,19.70
2022-08-09T23:36:06.419Z,19.70
2022-08-09T23:38:34.968Z,19.60
2022-08-09T23:41:11.841Z,19.60
2022-08-09T23:43:58.057Z,19.50
2022-08-09T23:46:32.805Z,19.50
2022-08-09T23:49:01.378Z,19.50
2022-08-09T23:51:36.806Z,19.50
2022-08-09T23:54:05.227Z,19.40
2022-08-09T23:56:54.222Z,19.40
2022-08-09T23:59:24.691Z,19.40
